Terminal Aerodrome Forecast
Issued by NWS

Home | Current Version | Previous Version | Graphics & Text | Print | Product List | Glossary On
Versions: 1 2 3 4 5 6 7 8 9 10 11 12 13 14 15 16 17
000
FTUS43 KMPX 231722
TAFRWF
TAF
KRWF 231722Z 2318/2418 29006KT P6SM SKC
     FM232200 VRB04KT P6SM FEW250
     FM240400 12007KT P6SM BKN050 OVC080
     FM240900 13009KT P6SM VCSH OVC040
     FM241400 15013G19KT 4SM -RA OVC030=

USA.gov is the U.S. government's official web portal to all federal, state and local government web resources and services.